createdAt,value
2019-05-18T00:02:36.456Z,10.28
2019-05-18T00:07:40.589Z,12.25
2019-05-18T00:12:44.717Z,11.38
2019-05-18T00:17:48.876Z,10.55
2019-05-18T00:22:52.990Z,10.48
2019-05-18T00:27:57.117Z,9.80
2019-05-18T00:33:01.239Z,10.72
2019-05-18T00:38:05.370Z,8.50
2019-05-18T00:43:09.493Z,6.67
2019-05-18T00:48:13.625Z,8.25
2019-05-18T00:53:17.759Z,8.38
2019-05-18T00:58:21.875Z,10.30
2019-05-18T01:03:26.000Z,10.93
2019-05-18T01:08:30.127Z,9.43
2019-05-18T01:13:34.251Z,9.60
2019-05-18T01:18:38.383Z,9.88
2019-05-18T01:23:42.506Z,8.95
2019-05-18T01:28:46.640Z,11.22
2019-05-18T01:33:50.760Z,9.95
2019-05-18T01:38:54.903Z,9.33
2019-05-18T01:43:59.024Z,8.68
2019-05-18T01:49:03.157Z,10.63
2019-05-18T01:54:07.280Z,8.93
2019-05-18T01:59:11.425Z,10.32
2019-05-18T02:04:15.550Z,11.95
2019-05-18T02:09:19.705Z,13.05
2019-05-18T02:14:23.816Z,10.75
2019-05-18T02:19:27.945Z,11.80
2019-05-18T02:24:32.069Z,10.53
2019-05-18T02:29:36.203Z,10.30
2019-05-18T02:34:40.359Z,10.88
2019-05-18T02:39:44.462Z,11.33
2019-05-18T02:44:48.587Z,10.90
2019-05-18T02:49:52.718Z,11.10
2019-05-18T02:54:56.842Z,11.60
2019-05-18T03:00:00.979Z,11.48
2019-05-18T03:05:06.746Z,11.50
2019-05-18T03:10:11.051Z,11.38
2019-05-18T03:15:15.247Z,11.50
2019-05-18T03:20:19.370Z,11.80
2019-05-18T03:25:23.511Z,11.90
2019-05-18T03:30:27.644Z,11.35
2019-05-18T03:35:32.342Z,11.63
2019-05-18T03:40:36.456Z,11.18
2019-05-18T03:45:40.585Z,12.95
2019-05-18T03:50:44.728Z,13.50
2019-05-18T03:55:48.850Z,13.40
2019-05-18T04:00:53.236Z,11.83
2019-05-18T04:05:57.366Z,11.00
2019-05-18T04:11:01.498Z,11.38
2019-05-18T04:16:05.615Z,10.82
2019-05-18T04:21:09.773Z,11.40
2019-05-18T04:26:13.998Z,11.25
2019-05-18T04:31:18.123Z,11.12
2019-05-18T04:36:22.250Z,11.10
2019-05-18T04:41:28.035Z,11.38
2019-05-18T04:46:32.142Z,10.93
2019-05-18T04:51:36.271Z,11.53
2019-05-18T04:56:42.803Z,10.30
2019-05-18T05:01:46.305Z,10.38
2019-05-18T05:06:50.407Z,11.00
2019-05-18T05:11:54.544Z,11.43
2019-05-18T05:16:58.680Z,11.30
2019-05-18T05:22:02.815Z,11.20
2019-05-18T05:27:07.047Z,10.85
2019-05-18T05:32:11.176Z,10.20
2019-05-18T05:37:15.560Z,9.80
2019-05-18T05:42:19.684Z,10.48
2019-05-18T05:47:23.826Z,10.85
2019-05-18T05:52:27.946Z,10.82
2019-05-18T05:57:32.072Z,17.95
2019-05-18T06:02:36.205Z,29.10
2019-05-18T06:07:40.402Z,30.62
2019-05-18T06:12:44.541Z,22.48
2019-05-18T06:17:48.664Z,31.87
2019-05-18T06:22:52.820Z,32.42
2019-05-18T06:27:56.941Z,31.95
2019-05-18T06:33:01.081Z,31.57
2019-05-18T06:38:05.623Z,31.60
2019-05-18T06:43:09.741Z,31.65
2019-05-18T06:48:13.872Z,33.50
2019-05-18T06:53:18.001Z,32.17
2019-05-18T06:58:22.133Z,29.60
2019-05-18T07:03:26.316Z,28.75
2019-05-18T07:08:30.457Z,41.90
2019-05-18T07:13:34.596Z,43.60
2019-05-18T07:18:38.704Z,38.63
2019-05-18T07:23:43.964Z,35.70
2019-05-18T07:28:48.154Z,35.58
2019-05-18T07:33:52.343Z,36.48
2019-05-18T07:38:56.470Z,37.33
2019-05-18T07:44:00.602Z,36.93
2019-05-18T07:49:04.736Z,36.63
2019-05-18T07:54:08.896Z,35.28
2019-05-18T07:59:13.019Z,36.50
2019-05-18T08:04:17.161Z,34.85
2019-05-18T08:09:21.284Z,34.30
2019-05-18T08:14:25.594Z,31.62
2019-05-18T08:19:29.931Z,29.95
2019-05-18T08:24:34.238Z,32.38
2019-05-18T08:29:38.536Z,32.17
2019-05-18T08:34:42.836Z,32.95
2019-05-18T08:39:47.155Z,32.98
2019-05-18T08:44:51.465Z,33.08
2019-05-18T08:49:55.781Z,33.98
2019-05-18T08:55:00.112Z,33.92
2019-05-18T09:00:06.113Z,32.85
2019-05-18T09:05:13.138Z,31.10
2019-05-18T09:10:17.989Z,32.00
2019-05-18T09:15:22.535Z,32.80
2019-05-18T09:20:26.835Z,32.50
2019-05-18T09:25:31.224Z,32.78
2019-05-18T09:30:35.531Z,31.02
2019-05-18T09:35:39.840Z,30.05
2019-05-18T09:40:44.154Z,29.20
2019-05-18T09:45:48.769Z,30.55
2019-05-18T09:50:53.082Z,28.60
2019-05-18T09:55:57.380Z,28.80
2019-05-18T10:01:01.704Z,27.82
2019-05-18T10:06:06.041Z,28.80
2019-05-18T10:11:10.330Z,28.42
2019-05-18T10:16:14.632Z,27.87
2019-05-18T10:21:18.947Z,28.17
2019-05-18T10:26:23.250Z,30.15
2019-05-18T10:31:27.557Z,30.20
2019-05-18T10:36:31.892Z,30.57
2019-05-18T10:41:36.365Z,30.17
2019-05-18T10:46:40.673Z,30.72
2019-05-18T10:51:44.994Z,31.17
2019-05-18T10:56:49.303Z,29.15
2019-05-18T11:01:53.611Z,29.10
2019-05-18T11:06:57.960Z,28.47
2019-05-18T11:12:02.261Z,28.80
2019-05-18T11:17:06.570Z,27.17
2019-05-18T11:22:10.873Z,25.92
2019-05-18T11:27:15.179Z,24.30
2019-05-18T11:32:19.490Z,25.60
2019-05-18T11:37:23.972Z,23.45
2019-05-18T11:42:28.277Z,22.67
2019-05-18T11:47:32.592Z,21.68
2019-05-18T11:52:36.902Z,21.90
2019-05-18T11:57:41.223Z,22.58
2019-05-18T12:02:45.522Z,24.20
2019-05-18T12:07:49.834Z,23.42
2019-05-18T12:12:54.213Z,21.57
2019-05-18T12:17:58.529Z,20.68
2019-05-18T12:23:02.932Z,20.72
2019-05-18T12:28:07.350Z,21.37
2019-05-18T12:33:11.724Z,18.90
2019-05-18T12:38:16.026Z,21.55
2019-05-18T12:43:20.333Z,21.48
2019-05-18T12:48:24.640Z,22.00
2019-05-18T12:53:28.952Z,21.25
2019-05-18T12:58:33.256Z,21.90
2019-05-18T13:03:37.567Z,20.32
2019-05-18T13:08:41.873Z,18.37
2019-05-18T13:13:46.172Z,17.92
2019-05-18T13:18:50.482Z,18.80
2019-05-18T13:23:54.820Z,18.45
2019-05-18T13:28:59.128Z,16.05
2019-05-18T13:34:03.437Z,16.55
2019-05-18T13:39:09.090Z,18.95
2019-05-18T13:44:13.393Z,20.72
2019-05-18T13:49:17.702Z,21.90
2019-05-18T13:54:22.012Z,22.25
2019-05-18T13:59:26.317Z,21.90
2019-05-18T14:04:30.626Z,22.90
2019-05-18T14:09:34.937Z,22.85
2019-05-18T14:14:39.414Z,23.25
2019-05-18T14:19:43.722Z,24.37
2019-05-18T14:24:48.037Z,22.98
2019-05-18T14:29:52.343Z,22.98
2019-05-18T14:34:56.655Z,23.38
2019-05-18T14:40:00.958Z,23.15
2019-05-18T14:45:07.686Z,24.45
2019-05-18T14:50:12.504Z,22.60
2019-05-18T14:55:16.947Z,22.67
2019-05-18T15:00:21.871Z,23.52
2019-05-18T15:05:26.180Z,22.60
2019-05-18T15:10:30.490Z,21.65
2019-05-18T15:15:34.798Z,23.00
2019-05-18T15:20:39.111Z,23.35
2019-05-18T15:25:50.582Z,22.02
2019-05-18T15:30:50.205Z,23.67
2019-05-18T15:35:54.513Z,22.00
2019-05-18T15:40:58.834Z,22.22
2019-05-18T15:46:03.552Z,21.60
2019-05-18T15:51:07.857Z,21.35
2019-05-18T15:56:12.179Z,21.50
2019-05-18T16:01:16.485Z,21.90
2019-05-18T16:06:20.801Z,23.07
2019-05-18T16:11:25.103Z,23.95
2019-05-18T16:16:30.079Z,23.32
2019-05-18T16:21:34.383Z,23.10
2019-05-18T16:26:38.688Z,23.22
2019-05-18T16:31:43.005Z,23.55
2019-05-18T16:36:47.327Z,23.85
2019-05-18T16:41:51.619Z,23.60
2019-05-18T16:46:56.650Z,21.68
2019-05-18T16:52:01.115Z,21.80
2019-05-18T16:57:05.400Z,21.40
2019-05-18T17:02:10.004Z,20.52
2019-05-18T17:07:14.314Z,19.17
2019-05-18T17:12:18.623Z,19.25
2019-05-18T17:17:22.932Z,22.48
2019-05-18T17:22:27.245Z,24.70
2019-05-18T17:27:31.556Z,25.62
2019-05-18T17:32:35.852Z,26.50
2019-05-18T17:37:40.165Z,25.17
2019-05-18T17:42:44.484Z,36.40
2019-05-18T17:47:48.891Z,39.50
2019-05-18T17:52:53.196Z,39.75
2019-05-18T17:57:57.505Z,40.33
2019-05-18T18:03:01.821Z,38.38
2019-05-18T18:08:06.126Z,38.30
2019-05-18T18:13:10.446Z,40.15
2019-05-18T18:18:14.751Z,41.00
2019-05-18T18:23:19.067Z,43.00
2019-05-18T18:28:23.365Z,43.98
2019-05-18T18:33:27.685Z,42.38
2019-05-18T18:38:32.062Z,43.30
2019-05-18T18:43:36.380Z,43.95
2019-05-18T18:48:40.689Z,43.68
2019-05-18T18:53:44.998Z,45.15
2019-05-18T18:58:49.307Z,45.12
2019-05-18T19:03:53.689Z,45.40
2019-05-18T19:08:57.997Z,42.05
2019-05-18T19:14:02.397Z,43.70
2019-05-18T19:19:06.694Z,45.20
2019-05-18T19:24:10.987Z,41.90
2019-05-18T19:29:15.298Z,40.65
2019-05-18T19:34:19.607Z,38.73
2019-05-18T19:39:23.924Z,38.20
2019-05-18T19:44:28.240Z,36.80
2019-05-18T19:49:32.548Z,36.17
2019-05-18T19:54:36.858Z,35.73
2019-05-18T19:59:41.167Z,36.65
2019-05-18T20:05:03.930Z,36.05
2019-05-18T20:09:53.009Z,36.05
2019-05-18T20:14:57.411Z,34.73
2019-05-18T20:20:01.717Z,41.95
2019-05-18T20:25:07.231Z,44.33
2019-05-18T20:30:12.709Z,43.13
2019-05-18T20:35:17.255Z,42.03
2019-05-18T20:40:21.570Z,41.75
2019-05-18T20:45:25.884Z,39.85
2019-05-18T20:50:30.185Z,44.00
2019-05-18T20:55:34.503Z,45.78
2019-05-18T21:00:38.955Z,42.70
2019-05-18T21:05:43.311Z,43.15
2019-05-18T21:10:47.617Z,39.58
2019-05-18T21:15:51.981Z,40.35
2019-05-18T21:20:56.291Z,37.17
2019-05-18T21:26:00.600Z,36.20
2019-05-18T21:31:04.909Z,35.05
2019-05-18T21:36:09.216Z,34.98
2019-05-18T21:41:13.529Z,41.10
2019-05-18T21:46:17.841Z,40.55
2019-05-18T21:51:22.146Z,39.23
2019-05-18T21:56:26.457Z,40.00
2019-05-18T22:01:31.833Z,39.55
2019-05-18T22:06:36.138Z,39.53
2019-05-18T22:11:40.455Z,39.08
2019-05-18T22:16:44.759Z,37.23
2019-05-18T22:21:49.065Z,36.35
2019-05-18T22:26:53.381Z,34.78
2019-05-18T22:31:57.745Z,34.05
2019-05-18T22:37:02.043Z,33.85
2019-05-18T22:42:06.363Z,32.45
2019-05-18T22:47:10.672Z,33.48
2019-05-18T22:52:14.972Z,33.38
2019-05-18T22:57:19.280Z,33.33
2019-05-18T23:02:23.589Z,34.83
2019-05-18T23:07:27.902Z,32.10
2019-05-18T23:12:32.201Z,32.15
2019-05-18T23:17:36.512Z,30.62
2019-05-18T23:22:40.819Z,30.68
2019-05-18T23:27:45.122Z,32.40
2019-05-18T23:32:50.582Z,31.93
2019-05-18T23:37:55.113Z,35.05
2019-05-18T23:42:59.436Z,32.75
2019-05-18T23:48:03.759Z,33.18
2019-05-18T23:53:08.056Z,32.53
2019-05-18T23:58:12.361Z,32.28
